Aviosuperficie AS77

IT-0302 · Friuli Venezia Giulia, 意大利

罗盘
风向 的 风向 010°
风: 4 kt, 2 beaufort

添加一条跑道以查看侧风和逆风信息。

添置 跑道
0 2.000 4.000 6.000 8.000 10.000
SCT 1.800 ft
BKN 7.000 ft
METAR LIPI 042055Z 01004KT 9999 SCT018 BKN070 07/05 Q1018

METAR Aviosuperficie AS77 - IT-0302

Aviosuperficie AS77是,意大利中的小机场。 该领域的国际民航组织标志是IT-0302.

这份报告是针对2022年12月4日 21:55, 当地时间在Rivolto Air Base进行的。

机场观察

风向为010°,速度为4 kt。

可见度为10 km 或者更多。

有疏云,零星散落的云朵在1.800 ft的高度 和 碎云在7.000 ft的高度。 破损或更高的上限为7.000 ft。

温度为7 °C,阵风为4 °C。 露点为5 °C,相对湿度为87%。 海平面上的气压为1018 hPa (QNH)。

白天

今天,太阳从07:31升起,在16:22降落。 这适用于Aviosuperficie AS77,世界夏令时可能有所不同。 当地时间与世界标准时间之间的时差为+1 小时。 当前,没有夏令时有效。

公司介绍

我们没有关于这个机场的公司信息。

体会

到Vliegles.nl去找飞行课程,跳伞和其他飞行体验。 浏览页面,了解Aviosuperficie AS77附近所有可用的活动。 你也可以使用搜索功能来寻找你所在地附近的特定飞行课程、跳伞或其他飞行体验。

乌云

1.800 ft SCT 疏云,零星散落的云朵
7.000 ft BKN 碎云

温度 & 天气

温度 7 °C
露点 5 °C
相对湿度 87%
风寒 4 °C
Kp-index 3 (0-9)

白天

日出
07:32 (8:26)
中午
11:57
日落
16:23

小工具

你想在你的网站上有一个关于Aviosuperficie AS77的当前航空天气(METAR)的小部件吗?

显示HTML代码

我们和第三方通过cookies跟踪您在我们网站上的互联网行为。如果你继续,我们认为你同意我们的饼干政策